Abrela — EAVW — position and weather

sailwx.info

Track history (hours):
 
Tides and Currents Weather Stations Pressure Air Temp Water Temp Dewpoint Dewpoint Depression Visibility Wind Speed Wind Dir Waves Ship Positions

Abrela

Last reported at 2016-Aug-23 22:10 UTC. Time now 2016-Aug-25 06:18 UTC.
Position N 43°41' W 007°36'.

Length 30 m; draft 3 m.

Type: Fishing. MMSI: 224204490.

Date/timePositionNaut miles runAvg speedWind from/ knotsBaromVisibWave heightAir tempDewpointWater temp
2016-Aug-23 22:10N 43°41' W 007°36'1 0.3
2016-Aug-23 19:17N 43°42' W 007°36'13 3.9
2016-Aug-23 16:04N 43°45' W 007°19'10 0.5
2016-Aug-22 21:15N 43°51' W 007°08'1 1.6
2016-Aug-22 20:33N 43°51' W 007°09'2 1.7
2016-Aug-22 19:09N 43°52' W 007°12'1 1.7
2016-Aug-22 18:17N 43°52' W 007°14'2 1.6
2016-Aug-22 17:19N 43°52' W 007°16'2 1.7
2016-Aug-22 16:14N 43°52' W 007°19'3 1.5
2016-Aug-22 14:14N 43°52' W 007°23'0 0.6
2016-Aug-22 13:24N 43°52' W 007°23'3 1.6
2016-Aug-22 11:24N 43°55' W 007°21'2 1.9
2016-Aug-22 10:19N 43°54' W 007°18'7 2.0
2016-Aug-22 06:34N 43°52' W 007°08'  
Track history (hours):
 
Tides and Currents Weather Stations Pressure Air Temp Water Temp Dewpoint Dewpoint Depression Visibility Wind Speed Wind Dir Waves Ship Positions

Abrela

Last reported at 2016-Aug-23 22:10 UTC. Time now 2016-Aug-25 06:18 UTC.
Position N 43°41' W 007°36'.

Length 30 m; draft 3 m.

Type: Fishing. MMSI: 224204490.

Date/timePositionNaut miles runAvg speedWind from/ knotsBaromVisibWave heightAir tempDewpointWater temp
2016-Aug-23 22:10N 43°41' W 007°36'1 0.3
2016-Aug-23 19:17N 43°42' W 007°36'13 3.9
2016-Aug-23 16:04N 43°45' W 007°19'10 0.5
2016-Aug-22 21:15N 43°51' W 007°08'1 1.6
2016-Aug-22 20:33N 43°51' W 007°09'2 1.7
2016-Aug-22 19:09N 43°52' W 007°12'1 1.7
2016-Aug-22 18:17N 43°52' W 007°14'2 1.6
2016-Aug-22 17:19N 43°52' W 007°16'2 1.7
2016-Aug-22 16:14N 43°52' W 007°19'3 1.5
2016-Aug-22 14:14N 43°52' W 007°23'0 0.6
2016-Aug-22 13:24N 43°52' W 007°23'3 1.6
2016-Aug-22 11:24N 43°55' W 007°21'2 1.9
2016-Aug-22 10:19N 43°54' W 007°18'7 2.0
2016-Aug-22 06:34N 43°52' W 007°08'  

Dump ship's entire track history